Decoded Metar for LFLL (LYON ST. EXUPERY in FRANCE) (IATA:LYS) | Meteo·Mobile Aviation Weather
aviador You're here:

LFLL Decoded Metar

LYON ST. EXUPERY in FRANCE
Report Time2019-04-20 10:00:00
UTC Time2019-04-20 10:33:45
Flight Rules vfr VFR
WindVRB at 03 kt
Visibility9999 m
Phenomena:N/A
Clouds:N/A
Expected CloudBase > 6,000 ft AGL from Temp-Dew spread
CeilingNone
Temp20°C (ISA +7)
Dew Point05°C (38% RH)
AAT17.8°C
QNH1024 hPa
Density Alt1,306 ft
Elevation787 ft
Report Wrong Elevation
Raw Report
LFLL 201000Z VRB03KT CAVOK 20/05 Q1024 NOSIG=

Extra information for LFLL:More info

Metar Taf Metar & Taf Last 4 Metars F.Rules Stats Wind Profile Meteogram Temp Stats Airport Information Weather charts Add Link Nearby VenuesMetar ALERT Operation Metar Decoded Social comments